createdAt,value
2023-05-07T00:01:47.090Z,16.09
2023-05-07T00:04:15.413Z,16.07
2023-05-07T00:06:43.578Z,16.06
2023-05-07T00:09:13.542Z,16.05
2023-05-07T00:11:41.620Z,16.03
2023-05-07T00:14:09.692Z,16.05
2023-05-07T00:16:37.770Z,16.03
2023-05-07T00:19:06.464Z,16.05
2023-05-07T00:21:34.588Z,16.04
2023-05-07T00:24:02.623Z,16.02
2023-05-07T00:26:32.008Z,16.05
2023-05-07T00:29:00.558Z,15.99
2023-05-07T00:31:28.630Z,16.02
2023-05-07T00:33:56.830Z,15.99
2023-05-07T00:36:24.901Z,16.00
2023-05-07T00:38:53.093Z,16.05
2023-05-07T00:41:21.203Z,16.06
2023-05-07T00:43:52.488Z,16.13
2023-05-07T00:46:23.383Z,16.14
2023-05-07T00:48:52.790Z,16.11
2023-05-07T00:51:21.697Z,16.11
2023-05-07T00:53:49.962Z,16.13
2023-05-07T00:56:18.541Z,16.11
2023-05-07T00:58:46.679Z,16.05
2023-05-07T01:01:16.893Z,16.06
2023-05-07T01:03:45.350Z,16.07
2023-05-07T01:06:17.639Z,16.04
2023-05-07T01:08:46.972Z,16.03
2023-05-07T01:11:16.016Z,16.00
2023-05-07T01:13:44.629Z,15.97
2023-05-07T01:16:12.741Z,15.94
2023-05-07T01:18:42.854Z,15.94
2023-05-07T01:21:13.920Z,15.93
2023-05-07T01:23:45.262Z,15.93
2023-05-07T01:26:13.480Z,15.90
2023-05-07T01:29:06.748Z,15.84
2023-05-07T01:32:28.468Z,15.75
2023-05-07T01:35:00.152Z,15.74
2023-05-07T01:38:26.624Z,15.70
2023-05-07T01:41:01.966Z,15.68
2023-05-07T01:45:10.543Z,15.55
2023-05-07T01:48:34.770Z,15.56
2023-05-07T01:51:04.136Z,15.60
2023-05-07T01:53:38.442Z,15.66
2023-05-07T01:56:33.722Z,15.68
2023-05-07T01:59:02.936Z,15.63
2023-05-07T02:01:35.040Z,15.67
2023-05-07T02:04:27.957Z,15.67
2023-05-07T02:06:56.691Z,15.66
2023-05-07T02:09:25.300Z,15.72
2023-05-07T02:11:55.049Z,15.72
2023-05-07T02:14:33.645Z,15.76
2023-05-07T02:17:01.661Z,15.77
2023-05-07T02:19:29.879Z,15.80
2023-05-07T02:21:58.255Z,15.77
2023-05-07T02:24:31.649Z,15.73
2023-05-07T02:27:06.438Z,15.72
2023-05-07T02:29:35.581Z,15.70
2023-05-07T02:32:04.148Z,15.68
2023-05-07T02:34:36.399Z,15.67
2023-05-07T02:37:04.453Z,15.64
2023-05-07T02:39:32.478Z,15.61
2023-05-07T02:42:02.164Z,15.60
2023-05-07T02:44:32.398Z,15.59
2023-05-07T02:47:00.516Z,15.51
2023-05-07T02:49:34.257Z,15.50
2023-05-07T02:52:03.003Z,15.49
2023-05-07T02:54:31.099Z,15.51
2023-05-07T02:56:59.507Z,15.46
2023-05-07T02:59:30.106Z,15.41
2023-05-07T03:01:58.916Z,15.38
2023-05-07T03:04:32.097Z,15.36
2023-05-07T03:07:00.313Z,15.37
2023-05-07T03:09:28.412Z,15.37
2023-05-07T03:11:56.660Z,15.33
2023-05-07T03:14:24.967Z,15.26
2023-05-07T03:16:54.574Z,15.30
2023-05-07T03:19:22.608Z,15.30
2023-05-07T03:21:50.783Z,15.24
2023-05-07T03:24:18.901Z,15.20
2023-05-07T03:26:46.888Z,15.13
2023-05-07T03:29:15.077Z,15.12
2023-05-07T03:31:43.163Z,15.11
2023-05-07T03:34:12.684Z,15.17
2023-05-07T03:36:40.785Z,15.14
2023-05-07T03:39:11.528Z,15.06
2023-05-07T03:41:42.328Z,15.05
2023-05-07T03:44:10.938Z,14.99
2023-05-07T03:46:40.160Z,15.02
2023-05-07T03:49:10.296Z,14.96
2023-05-07T03:51:39.808Z,14.96
2023-05-07T03:54:13.484Z,14.97
2023-05-07T03:56:46.034Z,14.96
2023-05-07T03:59:14.508Z,14.94
2023-05-07T04:01:45.294Z,14.91
2023-05-07T04:04:18.032Z,14.92
2023-05-07T04:06:47.583Z,14.86
2023-05-07T04:09:15.857Z,14.87
2023-05-07T04:11:44.282Z,14.86
2023-05-07T04:14:13.449Z,14.84
2023-05-07T04:16:41.718Z,14.89
2023-05-07T04:19:10.484Z,14.85
2023-05-07T04:21:40.039Z,14.87
2023-05-07T04:29:59.782Z,14.98
2023-05-07T04:32:27.887Z,15.05
2023-05-07T04:34:56.291Z,15.11
2023-05-07T04:37:24.764Z,15.20
2023-05-07T04:39:54.365Z,15.23
2023-05-07T04:42:25.123Z,15.25
2023-05-07T04:44:55.776Z,15.27
2023-05-07T04:47:25.631Z,15.28
2023-05-07T04:49:54.148Z,15.28
2023-05-07T04:52:22.384Z,15.28
2023-05-07T04:54:50.664Z,15.29
2023-05-07T04:57:20.379Z,15.34
2023-05-07T04:59:49.464Z,15.31
2023-05-07T05:02:20.608Z,15.34
2023-05-07T05:04:49.480Z,15.36
2023-05-07T05:07:17.789Z,15.38
2023-05-07T05:09:46.035Z,15.41
2023-05-07T05:12:14.179Z,15.43
2023-05-07T05:14:43.930Z,15.44
2023-05-07T05:17:12.624Z,15.39
2023-05-07T05:19:40.852Z,15.40
2023-05-07T05:22:09.162Z,15.37
2023-05-07T05:24:37.325Z,15.39
2023-05-07T05:27:06.299Z,15.43
2023-05-07T05:29:34.414Z,15.46
2023-05-07T05:32:04.524Z,15.58
2023-05-07T05:34:34.123Z,15.60
2023-05-07T05:37:02.789Z,15.66
2023-05-07T05:39:30.889Z,15.68
2023-05-07T05:41:59.147Z,15.68
2023-05-07T05:44:27.380Z,15.74
2023-05-07T05:46:58.533Z,15.78
2023-05-07T05:49:28.127Z,15.81
2023-05-07T05:51:56.795Z,15.84
2023-05-07T05:54:26.783Z,15.93
2023-05-07T05:56:54.881Z,16.02
2023-05-07T05:59:23.250Z,16.11
2023-05-07T06:01:51.703Z,16.18
2023-05-07T06:04:20.110Z,16.23
2023-05-07T06:06:49.831Z,16.27
2023-05-07T06:09:18.392Z,16.36
2023-05-07T06:11:46.699Z,16.42
2023-05-07T06:14:15.569Z,16.45
2023-05-07T06:16:44.541Z,16.40
2023-05-07T06:19:12.729Z,16.41
2023-05-07T06:21:42.211Z,16.46
2023-05-07T06:24:12.243Z,16.55
2023-05-07T06:26:41.295Z,16.61
2023-05-07T06:29:34.095Z,16.59
2023-05-07T06:32:34.229Z,16.64
2023-05-07T06:35:27.353Z,16.69
2023-05-07T06:37:56.451Z,16.77
2023-05-07T06:40:30.901Z,16.81
2023-05-07T06:49:07.396Z,17.02
2023-05-07T06:51:35.852Z,17.12
2023-05-07T06:54:05.696Z,17.23
2023-05-07T06:56:36.786Z,17.37
2023-05-07T06:59:06.403Z,17.52
2023-05-07T07:01:38.766Z,17.64
2023-05-07T07:04:07.786Z,17.76
2023-05-07T07:06:36.434Z,17.86
2023-05-07T07:09:09.726Z,17.96
2023-05-07T07:12:04.174Z,18.04
2023-05-07T07:14:32.841Z,18.13
2023-05-07T07:17:01.014Z,18.24
2023-05-07T07:19:29.609Z,18.38
2023-05-07T07:21:58.853Z,18.47
2023-05-07T07:24:26.919Z,18.57
2023-05-07T07:27:00.417Z,18.72
2023-05-07T07:29:29.233Z,18.82
2023-05-07T07:31:58.041Z,18.95
2023-05-07T07:34:27.894Z,19.11
2023-05-07T07:36:59.252Z,19.19
2023-05-07T07:39:52.632Z,19.26
2023-05-07T07:42:23.076Z,19.34
2023-05-07T07:44:51.258Z,19.41
2023-05-07T07:47:23.130Z,19.46
2023-05-07T07:49:52.668Z,19.50
2023-05-07T07:52:21.063Z,19.57
2023-05-07T07:54:49.471Z,19.62
2023-05-07T07:57:17.912Z,19.64
2023-05-07T07:59:47.557Z,19.69
2023-05-07T08:02:17.770Z,19.65
2023-05-07T08:04:46.326Z,19.70
2023-05-07T08:07:14.893Z,19.78
2023-05-07T08:09:46.072Z,19.95
2023-05-07T08:12:14.255Z,20.06
2023-05-07T08:14:42.801Z,20.17
2023-05-07T08:17:12.355Z,20.22
2023-05-07T08:19:40.504Z,20.23
2023-05-07T08:22:12.926Z,20.25
2023-05-07T08:24:43.931Z,20.32
2023-05-07T08:27:13.378Z,20.44
2023-05-07T08:29:43.306Z,20.61
2023-05-07T08:32:12.663Z,20.82
2023-05-07T08:34:40.761Z,20.98
2023-05-07T08:37:38.911Z,21.02
2023-05-07T08:40:11.468Z,21.08
2023-05-07T08:42:43.421Z,21.13
2023-05-07T08:45:12.951Z,21.27
2023-05-07T08:47:52.613Z,21.32
2023-05-07T08:50:23.270Z,21.39
2023-05-07T08:52:52.255Z,21.62
2023-05-07T08:55:22.075Z,21.76
2023-05-07T08:57:51.039Z,21.92
2023-05-07T09:00:19.773Z,22.02
2023-05-07T09:02:52.968Z,22.16
2023-05-07T09:05:21.580Z,22.31
2023-05-07T09:07:53.940Z,22.39
2023-05-07T09:10:23.952Z,22.49
2023-05-07T09:12:53.208Z,22.63
2023-05-07T09:15:22.331Z,22.68
2023-05-07T09:17:51.931Z,22.83
2023-05-07T09:20:20.688Z,22.91
2023-05-07T09:22:48.731Z,22.94
2023-05-07T09:25:30.473Z,22.93
2023-05-07T09:27:59.543Z,22.82
2023-05-07T09:30:30.808Z,22.83
2023-05-07T09:33:04.474Z,22.89
2023-05-07T09:35:34.707Z,23.01
2023-05-07T09:38:09.785Z,23.25
2023-05-07T09:40:38.713Z,23.31
2023-05-07T09:43:13.144Z,23.35
2023-05-07T09:45:46.461Z,23.31
2023-05-07T09:48:20.415Z,23.33
2023-05-07T09:50:53.526Z,23.35
2023-05-07T09:53:25.761Z,23.38
2023-05-07T09:55:55.383Z,23.41
2023-05-07T09:58:24.884Z,23.53
2023-05-07T10:00:54.477Z,23.58
2023-05-07T10:03:26.308Z,23.74
2023-05-07T10:06:01.621Z,23.76
2023-05-07T10:08:33.398Z,23.73
2023-05-07T10:11:06.129Z,23.70
2023-05-07T10:13:36.912Z,23.68
2023-05-07T10:16:56.448Z,23.48
2023-05-07T10:19:26.460Z,23.43
2023-05-07T10:22:08.174Z,23.45
2023-05-07T10:24:42.443Z,23.35
2023-05-07T10:27:17.872Z,23.31
2023-05-07T10:30:02.804Z,23.24
2023-05-07T10:32:41.731Z,23.14
2023-05-07T10:35:20.599Z,23.03
2023-05-07T10:37:50.793Z,22.99
2023-05-07T10:40:22.240Z,22.88
2023-05-07T10:43:00.400Z,22.88
2023-05-07T10:45:31.544Z,22.83
2023-05-07T10:48:29.029Z,22.85
2023-05-07T10:51:24.625Z,22.70
2023-05-07T10:54:27.873Z,22.68
2023-05-07T10:57:40.648Z,22.60
2023-05-07T11:00:49.361Z,22.53
2023-05-07T11:03:30.214Z,22.44
2023-05-07T11:06:36.361Z,22.45
2023-05-07T11:09:34.282Z,22.36
2023-05-07T11:12:53.057Z,22.25
2023-05-07T11:15:52.846Z,22.25
2023-05-07T11:22:09.819Z,22.15
2023-05-07T11:24:45.018Z,22.18
2023-05-07T11:27:15.417Z,22.15
2023-05-07T11:29:49.342Z,22.09
2023-05-07T11:32:17.983Z,22.10
2023-05-07T11:34:54.252Z,22.02
2023-05-07T11:37:25.861Z,22.06
2023-05-07T11:40:08.441Z,22.05
2023-05-07T11:42:38.884Z,22.01
2023-05-07T11:45:10.462Z,21.96
2023-05-07T11:47:38.802Z,21.95
2023-05-07T11:50:11.963Z,21.95
2023-05-07T11:52:41.503Z,22.01
2023-05-07T11:55:10.951Z,22.01
2023-05-07T11:57:39.597Z,21.97
2023-05-07T12:00:10.446Z,21.99
2023-05-07T12:02:42.879Z,21.94
2023-05-07T12:05:11.580Z,21.96
2023-05-07T12:07:42.318Z,22.01
2023-05-07T12:10:13.072Z,21.96
2023-05-07T12:12:42.787Z,21.96
2023-05-07T12:15:12.349Z,21.92
2023-05-07T12:17:42.025Z,21.85
2023-05-07T12:20:11.584Z,21.85
2023-05-07T12:22:41.381Z,21.79
2023-05-07T12:25:10.992Z,21.66
2023-05-07T12:27:41.017Z,21.62
2023-05-07T12:30:13.411Z,21.52
2023-05-07T12:32:42.408Z,21.46
2023-05-07T12:35:11.089Z,21.43
2023-05-07T12:37:40.660Z,21.41
2023-05-07T12:40:12.123Z,21.31
2023-05-07T12:42:43.339Z,21.15
2023-05-07T12:45:12.907Z,21.02
2023-05-07T12:47:41.437Z,20.92
2023-05-07T12:50:12.907Z,20.85
2023-05-07T12:52:42.571Z,20.71
2023-05-07T12:55:15.731Z,20.59
2023-05-07T12:57:47.425Z,20.58
2023-05-07T13:00:17.316Z,20.45
2023-05-07T13:02:47.484Z,20.18
2023-05-07T13:06:06.941Z,20.00
2023-05-07T13:08:42.430Z,20.03
2023-05-07T13:11:12.852Z,19.99
2023-05-07T13:13:43.168Z,19.96
2023-05-07T13:16:13.398Z,19.85
2023-05-07T13:18:44.767Z,19.77
2023-05-07T13:21:14.161Z,19.75
2023-05-07T13:23:43.776Z,19.67
2023-05-07T13:26:25.793Z,19.60
2023-05-07T13:28:55.475Z,19.56
2023-05-07T13:31:23.665Z,19.53
2023-05-07T13:33:51.777Z,19.45
2023-05-07T13:36:19.826Z,19.45
2023-05-07T13:38:49.470Z,19.50
2023-05-07T13:41:18.490Z,19.51
2023-05-07T13:43:46.633Z,19.55
2023-05-07T13:46:14.798Z,19.57
2023-05-07T13:48:43.742Z,19.51
2023-05-07T13:51:12.851Z,19.48
2023-05-07T13:53:41.115Z,19.51
2023-05-07T13:56:11.822Z,19.50
2023-05-07T13:58:51.997Z,19.50
2023-05-07T14:01:24.856Z,19.48
2023-05-07T14:03:53.177Z,19.47
2023-05-07T14:06:21.400Z,19.47
2023-05-07T14:08:50.616Z,19.47
2023-05-07T14:11:20.018Z,19.40
2023-05-07T14:13:48.102Z,19.40
2023-05-07T14:16:17.625Z,19.38
2023-05-07T14:18:45.781Z,19.35
2023-05-07T14:21:14.151Z,19.37
2023-05-07T14:23:42.233Z,19.37
2023-05-07T14:26:12.822Z,19.33
2023-05-07T14:28:47.070Z,19.30
2023-05-07T14:31:18.939Z,19.29
2023-05-07T14:33:47.032Z,19.24
2023-05-07T14:36:16.405Z,19.17
2023-05-07T14:38:44.502Z,19.14
2023-05-07T14:41:13.548Z,19.12
2023-05-07T14:43:42.953Z,19.13
2023-05-07T14:46:11.077Z,19.07
2023-05-07T14:48:39.816Z,19.05
2023-05-07T14:51:07.876Z,19.05
2023-05-07T14:53:35.938Z,18.97
2023-05-07T14:56:04.291Z,18.97
2023-05-07T14:58:32.312Z,18.97
2023-05-07T15:01:02.076Z,18.93
2023-05-07T15:03:30.529Z,18.96
2023-05-07T15:05:58.793Z,18.95
2023-05-07T15:08:26.865Z,18.94
2023-05-07T15:10:59.069Z,18.94
2023-05-07T15:13:27.267Z,18.92
2023-05-07T15:15:55.444Z,18.94
2023-05-07T15:18:25.333Z,18.98
2023-05-07T15:20:53.379Z,19.00
2023-05-07T15:23:21.424Z,19.02
2023-05-07T15:25:52.511Z,19.01
2023-05-07T15:28:21.277Z,19.01
2023-05-07T15:30:49.646Z,18.97
2023-05-07T15:33:17.799Z,18.99
2023-05-07T15:35:47.410Z,18.96
2023-05-07T15:38:15.781Z,18.99
2023-05-07T15:40:43.889Z,19.00
2023-05-07T15:43:14.272Z,19.06
2023-05-07T15:45:44.348Z,19.05
2023-05-07T15:48:12.800Z,19.06
2023-05-07T15:50:41.204Z,19.06
2023-05-07T15:53:10.709Z,19.08
2023-05-07T15:55:38.877Z,19.06
2023-05-07T15:58:07.161Z,19.06
2023-05-07T16:00:36.552Z,19.04
2023-05-07T16:03:05.196Z,19.08
2023-05-07T16:05:33.531Z,19.08
2023-05-07T16:08:01.649Z,19.11
2023-05-07T16:10:31.749Z,19.15
2023-05-07T16:13:00.000Z,19.19
2023-05-07T16:15:28.176Z,19.18
2023-05-07T16:17:58.294Z,19.23
2023-05-07T16:20:30.958Z,19.25
2023-05-07T16:22:59.648Z,19.24
2023-05-07T16:25:27.789Z,19.24
2023-05-07T16:27:57.282Z,19.27
2023-05-07T16:30:25.614Z,19.29
2023-05-07T16:32:53.760Z,19.32
2023-05-07T16:35:22.237Z,19.35
2023-05-07T16:37:50.334Z,19.34
2023-05-07T16:40:19.695Z,19.37
2023-05-07T16:42:47.915Z,19.33
2023-05-07T16:45:18.760Z,19.34
2023-05-07T16:47:47.383Z,19.35
2023-05-07T16:50:15.780Z,19.30
2023-05-07T16:52:44.570Z,19.27
2023-05-07T16:55:12.910Z,19.31
2023-05-07T16:57:41.196Z,19.29
2023-05-07T17:00:11.746Z,19.30
2023-05-07T17:02:41.450Z,19.29
2023-05-07T17:05:10.812Z,19.29
2023-05-07T17:07:39.685Z,19.28
2023-05-07T17:10:09.248Z,19.30
2023-05-07T17:12:38.050Z,19.30
2023-05-07T17:15:07.218Z,19.32
2023-05-07T17:17:36.767Z,19.30
2023-05-07T17:20:08.049Z,19.32
2023-05-07T17:22:36.629Z,19.23
2023-05-07T17:25:04.984Z,19.27
2023-05-07T17:27:35.099Z,19.22
2023-05-07T17:30:03.383Z,19.20
2023-05-07T17:32:32.812Z,19.19
2023-05-07T17:35:00.903Z,19.19
2023-05-07T17:37:30.465Z,19.17
2023-05-07T17:39:58.472Z,19.16
2023-05-07T17:42:26.546Z,19.16
2023-05-07T17:44:55.859Z,19.16
2023-05-07T17:47:24.053Z,19.19
2023-05-07T17:49:52.536Z,19.17
2023-05-07T17:52:20.815Z,19.15
2023-05-07T17:54:50.251Z,19.14
2023-05-07T17:57:18.657Z,19.09
2023-05-07T17:59:47.182Z,19.09
2023-05-07T18:02:15.285Z,19.03
2023-05-07T18:04:43.386Z,19.01
2023-05-07T18:07:11.591Z,19.01
2023-05-07T18:09:39.752Z,18.99
2023-05-07T18:12:09.318Z,18.99
2023-05-07T18:14:37.684Z,18.96
2023-05-07T18:17:05.913Z,18.96
2023-05-07T18:19:34.016Z,18.95
2023-05-07T18:22:02.011Z,18.93
2023-05-07T18:24:30.064Z,18.92
2023-05-07T18:26:58.150Z,18.90
2023-05-07T18:29:27.564Z,18.89
2023-05-07T18:31:55.671Z,18.88
2023-05-07T18:34:23.732Z,18.86
2023-05-07T18:36:51.757Z,18.86
2023-05-07T18:39:19.865Z,18.83
2023-05-07T18:41:48.864Z,18.84
2023-05-07T18:44:17.081Z,18.82
2023-05-07T18:46:47.839Z,18.84
2023-05-07T18:49:16.319Z,18.78
2023-05-07T18:51:44.960Z,18.83
2023-05-07T18:54:13.238Z,18.86
2023-05-07T18:56:42.532Z,18.83
2023-05-07T18:59:11.931Z,18.63
2023-05-07T19:01:41.297Z,18.55
2023-05-07T19:04:12.109Z,18.54
2023-05-07T19:06:40.395Z,18.54
2023-05-07T19:09:08.377Z,18.55
2023-05-07T19:11:37.564Z,18.51
2023-05-07T19:14:30.116Z,18.48
2023-05-07T19:16:58.424Z,18.48
2023-05-07T19:19:28.077Z,18.51
2023-05-07T19:21:56.110Z,18.48
2023-05-07T19:24:24.206Z,18.47
2023-05-07T19:26:52.215Z,18.45
2023-05-07T19:29:21.079Z,18.44
2023-05-07T19:31:49.216Z,18.43
2023-05-07T19:34:17.297Z,18.42
2023-05-07T19:36:46.660Z,18.39
2023-05-07T19:39:14.836Z,18.38
2023-05-07T19:41:43.696Z,18.41
2023-05-07T19:44:11.837Z,18.40
2023-05-07T19:46:44.907Z,18.36
2023-05-07T19:49:13.323Z,18.34
2023-05-07T19:51:41.548Z,18.33
2023-05-07T19:54:11.137Z,18.30
2023-05-07T19:56:41.956Z,18.31
2023-05-07T19:59:10.285Z,18.31
2023-05-07T20:01:39.865Z,18.33
2023-05-07T20:04:08.046Z,18.32
2023-05-07T20:06:36.161Z,18.33
2023-05-07T20:09:04.475Z,18.34
2023-05-07T20:11:34.264Z,18.34
2023-05-07T20:14:05.791Z,18.33
2023-05-07T20:16:34.118Z,18.33
2023-05-07T20:19:04.560Z,18.30
2023-05-07T20:21:32.812Z,18.29
2023-05-07T20:24:01.018Z,18.28
2023-05-07T20:26:29.045Z,18.24
2023-05-07T20:28:58.489Z,18.22
2023-05-07T20:31:26.639Z,18.19
2023-05-07T20:33:54.669Z,18.17
2023-05-07T20:36:25.184Z,18.16
2023-05-07T20:38:53.492Z,18.16
2023-05-07T20:41:24.675Z,18.19
2023-05-07T20:43:52.956Z,18.22
2023-05-07T20:46:23.179Z,18.21
2023-05-07T20:48:52.102Z,18.20
2023-05-07T20:51:20.250Z,18.22
2023-05-07T20:53:48.277Z,18.23
2023-05-07T20:56:16.440Z,18.24
2023-05-07T20:58:44.560Z,18.25
2023-05-07T21:01:12.674Z,18.20
2023-05-07T21:03:42.064Z,18.22
2023-05-07T21:06:10.142Z,18.19
2023-05-07T21:08:38.154Z,18.21
2023-05-07T21:11:10.067Z,18.22
2023-05-07T21:13:38.172Z,18.18
2023-05-07T21:16:06.569Z,18.19
2023-05-07T21:18:38.591Z,18.16
2023-05-07T21:21:12.337Z,18.17
2023-05-07T21:23:40.449Z,18.13
2023-05-07T21:26:08.527Z,18.12
2023-05-07T21:28:36.625Z,18.13
2023-05-07T21:31:04.694Z,18.12
2023-05-07T21:33:32.837Z,18.07
2023-05-07T21:36:00.862Z,18.07
2023-05-07T21:38:30.403Z,18.09
2023-05-07T21:40:59.545Z,18.05
2023-05-07T21:43:27.579Z,18.02
2023-05-07T21:45:55.699Z,17.94
2023-05-07T21:48:23.872Z,17.94
2023-05-07T21:51:02.025Z,17.96
2023-05-07T21:53:31.876Z,17.99
2023-05-07T21:56:02.124Z,18.01
2023-05-07T21:58:31.347Z,18.04
2023-05-07T22:01:00.870Z,18.04
2023-05-07T22:03:29.075Z,18.04
2023-05-07T22:05:57.182Z,18.03
2023-05-07T22:08:26.060Z,18.03
2023-05-07T22:10:55.727Z,18.02
2023-05-07T22:13:23.932Z,18.00
2023-05-07T22:15:57.279Z,18.00
2023-05-07T22:18:26.745Z,17.98
2023-05-07T22:20:54.960Z,18.01
2023-05-07T22:23:23.237Z,17.98
2023-05-07T22:25:51.290Z,17.97
2023-05-07T22:28:21.375Z,17.99
2023-05-07T22:30:49.457Z,17.96
2023-05-07T22:33:17.514Z,17.95
2023-05-07T22:35:45.561Z,17.97
2023-05-07T22:38:13.624Z,17.96
2023-05-07T22:40:42.210Z,17.94
2023-05-07T22:43:10.232Z,17.94
2023-05-07T22:45:39.654Z,17.97
2023-05-07T22:48:08.142Z,17.96
2023-05-07T22:50:38.601Z,17.96
2023-05-07T22:53:06.914Z,17.93
2023-05-07T22:55:35.664Z,17.89
2023-05-07T22:58:03.682Z,17.89
2023-05-07T23:00:31.935Z,17.90
2023-05-07T23:03:01.321Z,17.91
2023-05-07T23:05:29.482Z,17.91
2023-05-07T23:07:58.243Z,17.93
2023-05-07T23:10:26.362Z,17.93
2023-05-07T23:12:54.433Z,17.93
2023-05-07T23:15:22.867Z,17.90
2023-05-07T23:17:51.054Z,17.90
2023-05-07T23:20:20.682Z,17.93
2023-05-07T23:22:48.726Z,17.93
2023-05-07T23:25:18.081Z,17.89
2023-05-07T23:27:46.184Z,17.88
2023-05-07T23:30:15.834Z,17.90
2023-05-07T23:32:43.895Z,17.85
2023-05-07T23:35:15.330Z,17.86
2023-05-07T23:37:44.787Z,17.86
2023-05-07T23:40:15.259Z,17.88
2023-05-07T23:42:43.266Z,17.85
2023-05-07T23:45:13.358Z,17.89
2023-05-07T23:47:41.588Z,17.82
2023-05-07T23:50:12.603Z,17.82
2023-05-07T23:52:40.870Z,17.80
2023-05-07T23:55:16.878Z,17.82
2023-05-07T23:57:47.090Z,17.81
